createdAt,value
2023-05-14T00:00:53.504Z,11.42
2023-05-14T00:03:56.331Z,11.41
2023-05-14T00:06:59.035Z,11.47
2023-05-14T00:10:02.888Z,11.48
2023-05-14T00:13:06.473Z,11.48
2023-05-14T00:16:09.488Z,11.44
2023-05-14T00:19:12.018Z,11.48
2023-05-14T00:22:14.849Z,11.49
2023-05-14T00:25:17.312Z,11.45
2023-05-14T00:28:20.756Z,11.50
2023-05-14T00:31:24.282Z,11.48
2023-05-14T00:34:27.090Z,11.58
2023-05-14T00:37:30.741Z,11.54
2023-05-14T00:40:34.172Z,11.43
2023-05-14T00:43:36.646Z,11.53
2023-05-14T00:46:39.470Z,11.48
2023-05-14T00:49:42.824Z,11.50
2023-05-14T00:52:45.855Z,11.46
2023-05-14T00:55:50.526Z,11.37
2023-05-14T00:58:53.397Z,11.51
2023-05-14T01:01:56.336Z,11.55
2023-05-14T01:04:59.329Z,11.45
2023-05-14T01:08:17.003Z,11.41
2023-05-14T01:11:24.773Z,11.32
2023-05-14T01:15:00.723Z,11.16
2023-05-14T01:18:09.837Z,11.12
2023-05-14T01:21:42.789Z,11.11
2023-05-14T01:24:46.296Z,11.03
2023-05-14T01:28:17.552Z,10.91
2023-05-14T01:31:28.000Z,10.93
2023-05-14T01:34:31.793Z,10.81
2023-05-14T01:37:37.087Z,10.81
2023-05-14T01:40:43.225Z,10.85
2023-05-14T01:43:45.962Z,10.74
2023-05-14T01:46:53.634Z,10.76
2023-05-14T01:49:56.384Z,10.77
2023-05-14T01:52:59.105Z,10.75
2023-05-14T01:56:03.024Z,10.74
2023-05-14T01:59:05.734Z,10.77
2023-05-14T02:02:08.608Z,10.70
2023-05-14T02:05:12.567Z,10.77
2023-05-14T02:08:15.035Z,10.77
2023-05-14T02:11:17.856Z,10.77
2023-05-14T02:14:20.689Z,10.79
2023-05-14T02:17:24.104Z,10.88
2023-05-14T02:20:27.824Z,10.82
2023-05-14T02:23:40.393Z,10.86
2023-05-14T02:26:44.625Z,10.87
2023-05-14T02:29:47.422Z,10.91
2023-05-14T02:32:50.250Z,10.93
2023-05-14T02:35:52.841Z,10.98
2023-05-14T02:38:55.602Z,10.99
2023-05-14T02:41:57.982Z,11.08
2023-05-14T02:45:00.799Z,11.13
2023-05-14T02:48:03.315Z,11.05
2023-05-14T02:51:06.481Z,11.11
2023-05-14T02:54:09.059Z,11.14
2023-05-14T02:57:11.789Z,11.07
2023-05-14T03:00:14.896Z,11.13
2023-05-14T03:03:19.917Z,11.13
2023-05-14T03:06:22.742Z,11.13
2023-05-14T03:09:25.580Z,11.15
2023-05-14T03:12:28.117Z,11.14
2023-05-14T03:15:31.246Z,11.18
2023-05-14T03:18:34.842Z,11.11
2023-05-14T03:21:38.334Z,10.96
2023-05-14T03:24:40.912Z,10.99
2023-05-14T03:27:53.099Z,11.07
2023-05-14T03:30:56.251Z,11.04
2023-05-14T03:33:59.116Z,11.00
2023-05-14T03:37:02.096Z,11.13
2023-05-14T03:40:05.533Z,11.08
2023-05-14T03:43:08.615Z,11.22
2023-05-14T03:46:11.842Z,11.20
2023-05-14T03:49:14.322Z,11.28
2023-05-14T03:52:17.143Z,11.50
2023-05-14T03:55:20.071Z,11.42
2023-05-14T03:58:22.843Z,11.33
2023-05-14T04:01:25.394Z,11.25
2023-05-14T04:04:28.319Z,11.20
2023-05-14T04:07:30.853Z,11.34
2023-05-14T04:10:33.842Z,11.25
2023-05-14T04:13:36.360Z,11.30
2023-05-14T04:16:39.279Z,11.25
2023-05-14T04:19:41.892Z,11.26
2023-05-14T04:22:44.769Z,11.23
2023-05-14T04:25:47.437Z,11.25
2023-05-14T04:28:50.346Z,11.22
2023-05-14T04:31:55.275Z,11.16
2023-05-14T04:34:58.133Z,11.19
2023-05-14T04:38:00.876Z,11.09
2023-05-14T04:41:03.759Z,11.12
2023-05-14T04:44:06.953Z,11.12
2023-05-14T04:47:09.797Z,11.10
2023-05-14T04:50:12.246Z,11.10
2023-05-14T04:53:15.082Z,11.15
2023-05-14T04:56:17.654Z,11.03
2023-05-14T04:59:20.513Z,11.18
2023-05-14T05:02:23.054Z,11.03
2023-05-14T05:05:26.411Z,11.07
2023-05-14T05:08:29.322Z,11.16
2023-05-14T05:11:34.953Z,11.11
2023-05-14T05:14:37.425Z,11.08
2023-05-14T05:17:40.187Z,11.08
2023-05-14T05:20:42.716Z,11.14
2023-05-14T05:23:45.443Z,11.04
2023-05-14T05:26:48.224Z,11.08
2023-05-14T05:29:51.086Z,11.14
2023-05-14T05:32:53.876Z,11.17
2023-05-14T05:35:56.773Z,11.06
2023-05-14T05:38:59.506Z,11.18
2023-05-14T05:42:02.785Z,11.15
2023-05-14T05:45:05.993Z,11.19
2023-05-14T05:48:08.808Z,11.18
2023-05-14T05:51:11.740Z,11.16
2023-05-14T05:54:14.635Z,11.30
2023-05-14T05:57:17.094Z,11.22
2023-05-14T06:00:20.609Z,11.25
2023-05-14T06:03:23.354Z,11.33
2023-05-14T06:06:26.268Z,11.28
2023-05-14T06:09:29.236Z,11.33
2023-05-14T06:12:31.995Z,11.33
2023-05-14T06:15:34.435Z,11.37
2023-05-14T06:18:37.182Z,11.23
2023-05-14T06:21:39.735Z,11.18
2023-05-14T06:24:42.532Z,11.41
2023-05-14T06:27:45.059Z,11.36
2023-05-14T06:30:50.534Z,11.20
2023-05-14T06:33:53.259Z,11.27
2023-05-14T06:36:56.100Z,11.37
2023-05-14T06:39:58.719Z,11.43
2023-05-14T06:43:01.439Z,11.47
2023-05-14T06:46:03.904Z,11.38
2023-05-14T06:49:06.794Z,11.48
2023-05-14T06:52:09.351Z,11.44
2023-05-14T06:55:12.365Z,11.54
2023-05-14T06:58:14.996Z,11.46
2023-05-14T07:01:17.864Z,11.72
2023-05-14T07:04:20.451Z,11.88
2023-05-14T07:07:23.700Z,11.83
2023-05-14T07:10:26.561Z,11.90
2023-05-14T07:13:29.793Z,12.01
2023-05-14T07:16:32.242Z,11.95
2023-05-14T07:19:35.050Z,12.13
2023-05-14T07:22:37.525Z,12.23
2023-05-14T07:25:40.382Z,12.22
2023-05-14T07:28:42.893Z,12.11
2023-05-14T07:31:45.964Z,12.35
2023-05-14T07:34:48.853Z,12.46
2023-05-14T07:37:51.753Z,12.46
2023-05-14T07:40:54.488Z,12.51
2023-05-14T07:43:57.237Z,12.53
2023-05-14T07:46:59.785Z,12.75
2023-05-14T07:50:02.580Z,12.80
2023-05-14T07:53:05.318Z,12.70
2023-05-14T07:56:08.437Z,12.71
2023-05-14T07:59:10.948Z,12.72
2023-05-14T08:02:16.082Z,12.82
2023-05-14T08:05:19.410Z,12.81
2023-05-14T08:08:21.812Z,12.64
2023-05-14T08:11:24.640Z,12.65
2023-05-14T08:14:27.264Z,12.61
2023-05-14T08:17:30.238Z,12.65
2023-05-14T08:20:32.824Z,12.91
2023-05-14T08:23:35.742Z,13.13
2023-05-14T08:26:40.933Z,13.19
2023-05-14T08:29:43.754Z,13.31
2023-05-14T08:32:46.298Z,13.38
2023-05-14T08:35:53.174Z,13.53
2023-05-14T08:38:56.246Z,13.78
2023-05-14T08:42:00.830Z,13.57
2023-05-14T08:45:05.822Z,13.59
2023-05-14T08:48:14.061Z,13.27
2023-05-14T08:51:16.658Z,13.36
2023-05-14T08:54:19.731Z,13.29
2023-05-14T08:57:26.569Z,13.37
2023-05-14T09:00:29.830Z,12.96
2023-05-14T09:03:32.787Z,13.11
2023-05-14T09:06:37.750Z,13.38
2023-05-14T09:09:40.816Z,13.28
2023-05-14T09:12:43.693Z,13.27
2023-05-14T09:15:48.227Z,13.48
2023-05-14T09:18:51.518Z,13.49
2023-05-14T09:22:01.046Z,13.69
2023-05-14T09:25:06.454Z,13.67
2023-05-14T09:28:09.145Z,13.50
2023-05-14T09:31:11.976Z,13.47
2023-05-14T09:34:33.972Z,13.45
2023-05-14T09:37:38.196Z,13.37
2023-05-14T09:40:40.823Z,13.30
2023-05-14T09:43:43.880Z,13.34
2023-05-14T09:46:47.932Z,13.41
2023-05-14T09:49:50.809Z,13.22
2023-05-14T09:52:55.754Z,13.32
2023-05-14T09:55:58.832Z,13.37
2023-05-14T09:59:01.341Z,13.41
2023-05-14T10:02:07.215Z,13.42
2023-05-14T10:05:10.669Z,13.41
2023-05-14T10:08:26.797Z,13.48
2023-05-14T10:11:33.844Z,13.62
2023-05-14T10:14:43.073Z,13.67
2023-05-14T10:17:50.008Z,13.60
2023-05-14T10:21:03.323Z,13.75
2023-05-14T10:24:08.056Z,13.68
2023-05-14T10:27:10.640Z,13.73
2023-05-14T10:30:13.839Z,13.70
2023-05-14T10:33:18.373Z,13.76
2023-05-14T10:36:22.255Z,13.86
2023-05-14T10:39:40.323Z,13.68
2023-05-14T10:42:46.453Z,13.83
2023-05-14T10:45:49.422Z,13.87
2023-05-14T10:48:52.535Z,13.78
2023-05-14T10:51:57.064Z,13.72
2023-05-14T10:55:03.452Z,13.78
2023-05-14T10:58:06.361Z,13.78
2023-05-14T11:01:11.168Z,13.88
2023-05-14T11:04:23.828Z,13.87
2023-05-14T11:07:31.020Z,13.76
2023-05-14T11:10:36.205Z,13.85
2023-05-14T11:13:39.189Z,13.83
2023-05-14T11:16:42.963Z,13.72
2023-05-14T11:19:45.986Z,13.60
2023-05-14T11:22:50.299Z,13.65
2023-05-14T11:25:54.318Z,13.58
2023-05-14T11:28:57.030Z,13.51
2023-05-14T11:32:00.395Z,13.61
2023-05-14T11:35:03.313Z,13.62
2023-05-14T11:38:08.019Z,13.55
2023-05-14T11:41:15.018Z,13.71
2023-05-14T11:44:17.943Z,13.65
2023-05-14T11:47:22.022Z,13.57
2023-05-14T11:50:25.594Z,13.43
2023-05-14T11:53:30.340Z,13.29
2023-05-14T11:56:33.317Z,13.17
2023-05-14T11:59:36.322Z,13.13
2023-05-14T12:02:40.380Z,13.14
2023-05-14T12:05:59.215Z,13.09
2023-05-14T12:09:01.776Z,13.10
2023-05-14T12:12:13.756Z,13.14
2023-05-14T12:15:17.342Z,13.13
2023-05-14T12:18:24.558Z,13.09
2023-05-14T12:21:32.624Z,13.03
2023-05-14T12:24:39.120Z,13.02
2023-05-14T12:27:47.543Z,12.98
2023-05-14T12:30:57.519Z,12.90
2023-05-14T12:34:00.263Z,12.69
2023-05-14T12:37:03.737Z,12.70
2023-05-14T12:40:11.261Z,12.66
2023-05-14T12:43:14.843Z,12.72
2023-05-14T12:46:17.527Z,12.69
2023-05-14T12:49:20.334Z,12.58
2023-05-14T12:52:36.802Z,12.59
2023-05-14T12:55:41.899Z,12.60
2023-05-14T12:58:46.616Z,12.55
2023-05-14T13:01:49.532Z,12.53
2023-05-14T13:04:52.087Z,12.50
2023-05-14T13:07:55.147Z,12.48
2023-05-14T13:10:57.563Z,12.49
2023-05-14T13:14:01.876Z,12.45
2023-05-14T13:17:05.381Z,12.41
2023-05-14T13:20:09.170Z,12.40
2023-05-14T13:23:11.671Z,12.37
2023-05-14T13:26:15.546Z,12.41
2023-05-14T13:29:18.094Z,12.45
2023-05-14T13:32:20.937Z,12.41
2023-05-14T13:35:23.655Z,12.42
2023-05-14T13:38:26.920Z,12.30
2023-05-14T13:41:30.061Z,12.33
2023-05-14T13:44:32.886Z,12.38
2023-05-14T13:47:36.109Z,12.36
2023-05-14T13:50:38.978Z,12.35
2023-05-14T13:53:41.534Z,12.36
2023-05-14T13:56:44.287Z,12.37
2023-05-14T13:59:47.251Z,12.31
2023-05-14T14:02:50.037Z,12.33
2023-05-14T14:05:52.926Z,12.24
2023-05-14T14:08:55.923Z,12.16
2023-05-14T14:11:58.712Z,12.13
2023-05-14T14:15:05.222Z,12.19
2023-05-14T14:18:08.173Z,12.11
2023-05-14T14:21:11.128Z,12.15
2023-05-14T14:24:14.192Z,12.12
2023-05-14T14:27:16.625Z,12.05
2023-05-14T14:30:20.035Z,12.06
2023-05-14T14:33:22.584Z,11.92
2023-05-14T14:36:25.533Z,11.88
2023-05-14T14:39:28.493Z,11.86
2023-05-14T14:42:32.683Z,11.94
2023-05-14T14:45:35.279Z,11.79
2023-05-14T14:48:38.627Z,11.74
2023-05-14T14:51:41.217Z,11.65
2023-05-14T14:54:44.146Z,11.62
2023-05-14T14:57:46.881Z,11.54
2023-05-14T15:00:51.839Z,11.59
2023-05-14T15:03:54.491Z,11.48
2023-05-14T15:06:57.344Z,11.49
2023-05-14T15:10:00.238Z,11.49
2023-05-14T15:13:04.593Z,11.44
2023-05-14T15:16:07.734Z,11.40
2023-05-14T15:19:11.094Z,11.40
2023-05-14T15:22:13.693Z,11.38
2023-05-14T15:25:16.808Z,11.36
2023-05-14T15:28:19.337Z,11.38
2023-05-14T15:31:22.379Z,11.37
2023-05-14T15:34:25.155Z,11.33
2023-05-14T15:37:28.007Z,11.33
2023-05-14T15:40:30.845Z,11.37
2023-05-14T15:43:33.610Z,11.26
2023-05-14T15:46:37.945Z,11.32
2023-05-14T15:49:40.859Z,11.24
2023-05-14T15:52:43.322Z,11.27
2023-05-14T15:55:48.301Z,11.31
2023-05-14T15:58:50.879Z,11.26
2023-05-14T16:01:53.685Z,11.22
2023-05-14T16:04:56.472Z,11.20
2023-05-14T16:07:59.394Z,11.26
2023-05-14T16:11:02.481Z,11.33
2023-05-14T16:14:04.937Z,11.27
2023-05-14T16:17:08.199Z,11.24
2023-05-14T16:20:11.555Z,11.24
2023-05-14T16:23:15.779Z,11.26
2023-05-14T16:26:19.709Z,11.32
2023-05-14T16:29:22.736Z,11.26
2023-05-14T16:32:25.483Z,11.28
2023-05-14T16:35:28.399Z,11.31
2023-05-14T16:38:30.873Z,11.34
2023-05-14T16:41:34.169Z,11.34
2023-05-14T16:44:36.862Z,11.37
2023-05-14T16:47:39.874Z,11.37
2023-05-14T16:50:42.559Z,11.37
2023-05-14T16:53:46.079Z,11.38
2023-05-14T16:56:48.738Z,11.39
2023-05-14T16:59:51.789Z,11.47
2023-05-14T17:02:54.815Z,11.42
2023-05-14T17:05:57.691Z,11.42
2023-05-14T17:09:00.960Z,11.43
2023-05-14T17:12:04.384Z,11.48
2023-05-14T17:15:07.662Z,11.50
2023-05-14T17:18:13.146Z,11.44
2023-05-14T17:21:16.070Z,11.47
2023-05-14T17:24:18.823Z,11.44
2023-05-14T17:27:21.278Z,11.40
2023-05-14T17:30:24.595Z,11.41
2023-05-14T17:33:27.172Z,11.38
2023-05-14T17:36:31.611Z,11.43
2023-05-14T17:39:34.137Z,11.41
2023-05-14T17:42:36.886Z,11.42
2023-05-14T17:45:50.254Z,11.43
2023-05-14T17:48:58.265Z,11.43
2023-05-14T17:52:01.438Z,11.46
2023-05-14T17:55:04.504Z,11.51
2023-05-14T17:58:07.338Z,11.48
2023-05-14T18:01:10.350Z,11.45
2023-05-14T18:04:13.598Z,11.49
2023-05-14T18:07:16.465Z,11.46
2023-05-14T18:10:19.387Z,11.47
2023-05-14T18:13:21.841Z,11.49
2023-05-14T18:16:24.825Z,11.52
2023-05-14T18:19:27.503Z,11.48
2023-05-14T18:22:30.687Z,11.51
2023-05-14T18:25:33.976Z,11.55
2023-05-14T18:28:37.363Z,11.52
2023-05-14T18:31:39.948Z,11.54
2023-05-14T18:34:43.093Z,11.53
2023-05-14T18:37:46.711Z,11.53
2023-05-14T18:40:49.746Z,11.52
2023-05-14T18:43:52.231Z,11.52
2023-05-14T18:46:55.648Z,11.54
2023-05-14T18:50:00.432Z,11.57
2023-05-14T18:53:03.716Z,11.56
2023-05-14T18:56:06.268Z,11.59
2023-05-14T18:59:10.570Z,11.63
2023-05-14T19:02:13.341Z,11.64
2023-05-14T19:05:16.483Z,11.66
2023-05-14T19:08:19.256Z,11.65
2023-05-14T19:11:22.655Z,11.68
2023-05-14T19:14:25.330Z,11.71
2023-05-14T19:17:29.220Z,11.71
2023-05-14T19:20:31.773Z,11.70
2023-05-14T19:23:34.666Z,11.67
2023-05-14T19:26:38.157Z,11.70
2023-05-14T19:29:40.941Z,11.69
2023-05-14T19:32:43.461Z,11.68
2023-05-14T19:35:47.335Z,11.69
2023-05-14T19:38:50.375Z,11.71
2023-05-14T19:41:53.603Z,11.71
2023-05-14T19:44:56.270Z,11.70
2023-05-14T19:48:00.334Z,11.72
2023-05-14T19:51:03.004Z,11.72
2023-05-14T19:54:06.810Z,11.75
2023-05-14T19:57:10.004Z,11.74
2023-05-14T20:00:13.549Z,11.70
2023-05-14T20:03:16.061Z,11.71
2023-05-14T20:06:19.027Z,11.72
2023-05-14T20:09:21.630Z,11.71
2023-05-14T20:12:24.441Z,11.74
2023-05-14T20:15:27.118Z,11.74
2023-05-14T20:18:30.024Z,11.74
2023-05-14T20:21:35.148Z,11.76
2023-05-14T20:24:38.581Z,11.78
2023-05-14T20:27:41.352Z,11.77
2023-05-14T20:30:44.187Z,11.80
2023-05-14T20:33:46.668Z,11.79
2023-05-14T20:36:49.628Z,11.87
2023-05-14T20:39:53.413Z,12.05
2023-05-14T20:42:56.233Z,12.10
2023-05-14T20:46:01.648Z,12.13
2023-05-14T20:49:04.558Z,12.17
2023-05-14T20:52:07.149Z,12.13
2023-05-14T20:55:10.122Z,12.11
2023-05-14T20:58:12.628Z,12.06
2023-05-14T21:01:15.498Z,12.05
2023-05-14T21:04:18.369Z,11.99
2023-05-14T21:07:21.360Z,12.00
2023-05-14T21:10:24.166Z,11.95
2023-05-14T21:13:27.143Z,11.93
2023-05-14T21:16:31.098Z,11.95
2023-05-14T21:19:33.897Z,11.90
2023-05-14T21:22:36.401Z,11.87
2023-05-14T21:25:39.401Z,11.88
2023-05-14T21:28:41.967Z,11.86
2023-05-14T21:31:44.779Z,11.87
2023-05-14T21:34:47.223Z,11.82
2023-05-14T21:37:51.009Z,11.82
2023-05-14T21:40:53.524Z,11.84
2023-05-14T21:43:56.333Z,11.81
2023-05-14T21:46:59.433Z,11.85
2023-05-14T21:50:02.233Z,11.83
2023-05-14T21:53:04.738Z,11.84
2023-05-14T21:56:08.264Z,11.83
2023-05-14T21:59:11.138Z,11.84
2023-05-14T22:02:14.082Z,11.82
2023-05-14T22:05:17.025Z,11.81
2023-05-14T22:08:19.501Z,11.85
2023-05-14T22:11:22.477Z,11.82
2023-05-14T22:14:26.538Z,11.88
2023-05-14T22:17:29.362Z,11.81
2023-05-14T22:20:31.933Z,11.83
2023-05-14T22:23:34.730Z,11.85
2023-05-14T22:26:37.624Z,11.87
2023-05-14T22:29:41.043Z,11.90
2023-05-14T22:32:43.909Z,11.86
2023-05-14T22:35:46.774Z,11.89
2023-05-14T22:38:49.289Z,11.87
2023-05-14T22:41:55.318Z,11.90
2023-05-14T22:44:57.884Z,11.89
2023-05-14T22:48:00.792Z,11.95
2023-05-14T22:51:03.385Z,11.85
2023-05-14T22:54:06.752Z,11.87
2023-05-14T22:57:09.312Z,11.90
2023-05-14T23:00:12.896Z,11.93
2023-05-14T23:03:15.553Z,11.95
2023-05-14T23:06:18.749Z,11.87
2023-05-14T23:09:21.143Z,11.90
2023-05-14T23:12:24.083Z,11.90
2023-05-14T23:15:27.364Z,11.90
2023-05-14T23:18:30.969Z,11.98
2023-05-14T23:21:33.461Z,11.91
2023-05-14T23:24:36.359Z,11.88
2023-05-14T23:27:39.273Z,11.96
2023-05-14T23:30:42.165Z,11.89
2023-05-14T23:33:44.749Z,11.83
2023-05-14T23:36:47.939Z,11.86
2023-05-14T23:39:50.767Z,11.85
2023-05-14T23:42:53.590Z,11.85
2023-05-14T23:45:56.384Z,11.98
2023-05-14T23:48:59.650Z,11.96
2023-05-14T23:52:02.461Z,11.91
2023-05-14T23:55:05.595Z,11.89
2023-05-14T23:58:08.294Z,11.91
